Time;durP1;ratioP1;P1;durP2;ratioP2;P2;SDS_P1;SDS_P2;PMS_P1;PMS_P2;Temp;Humidity;BMP_temperature;BMP_pressure;BME280_temperature;BME280_humidity;BME280_pressure;Samples;Min_cycle;Max_cycle;Signal;HPM_P1;HPM_P2
2023/01/05 00:01:45;;;;;;;13.63;3.37;;;12.20;99.90;;;;;;5071094;28;20171;-81
2023/01/05 00:04:11;;;;;;;19.67;3.67;;;12.20;99.90;;;;;;5044840;28;20180;-81
2023/01/05 00:06:38;;;;;;;18.47;3.67;;;12.20;99.90;;;;;;5065593;28;20187;-82
2023/01/05 00:09:05;;;;;;;18.27;3.63;;;12.10;99.90;;;;;;5066888;28;20644;-82
2023/01/05 00:22:37;;;;;;;18.90;3.97;;;12.10;99.90;;;;;;5066335;28;20166;-81
2023/01/05 00:25:15;;;;;;;12.03;3.43;;;12.10;99.90;;;;;;5066815;28;20226;-82
2023/01/05 00:27:42;;;;;;;18.60;4.23;;;12.00;99.90;;;;;;5044133;28;20179;-82
2023/01/05 00:30:10;;;;;;;19.27;4.60;;;12.00;99.90;;;;;;5044329;28;20182;-82
2023/01/05 00:32:36;;;;;;;15.57;3.43;;;12.00;99.90;;;;;;5061968;28;20244;-82
2023/01/05 00:35:01;;;;;;;23.30;3.97;;;12.00;99.90;;;;;;5061326;28;20261;-82
2023/01/05 00:37:31;;;;;;;22.37;3.90;;;11.90;99.90;;;;;;5061319;28;20171;-82
2023/01/05 00:39:56;;;;;;;14.40;3.47;;;12.00;99.90;;;;;;5061612;28;20172;-82
2023/01/05 00:42:22;;;;;;;16.30;3.53;;;12.00;99.90;;;;;;5062041;28;20548;-82
2023/01/05 00:44:48;;;;;;;18.97;4.33;;;11.90;99.90;;;;;;5061734;28;20274;-82
2023/01/05 00:47:13;;;;;;;15.67;3.57;;;11.90;99.90;;;;;;5042842;28;20180;-82
2023/01/05 00:49:39;;;;;;;19.20;4.10;;;11.90;99.90;;;;;;5043838;28;20274;-82
2023/01/05 00:52:05;;;;;;;17.10;5.00;;;11.90;99.90;;;;;;5043797;28;20667;-82
2023/01/05 00:54:31;;;;;;;23.50;4.40;;;11.90;99.90;;;;;;5042837;28;20222;-82
2023/01/05 00:56:56;;;;;;;18.00;3.87;;;11.90;99.90;;;;;;5062029;28;20521;-82
2023/01/05 00:59:22;;;;;;;20.80;3.57;;;11.90;99.90;;;;;;5061416;28;20187;-82
2023/01/05 01:01:49;;;;;;;17.63;3.93;;;11.90;99.90;;;;;;5061474;28;20540;-82
2023/01/05 01:04:15;;;;;;;21.93;3.83;;;11.90;99.90;;;;;;5042924;28;20254;-81
2023/01/05 01:06:41;;;;;;;20.57;4.23;;;11.80;99.90;;;;;;5061770;28;20259;-82
2023/01/05 01:09:07;;;;;;;17.73;3.67;;;11.80;99.90;;;;;;5060883;28;20195;-81
2023/01/05 01:11:32;;;;;;;21.63;3.83;;;11.80;99.90;;;;;;5061065;28;20175;-82
2023/01/05 01:13:58;;;;;;;20.20;3.90;;;11.80;99.90;;;;;;5061325;28;20536;-82
2023/01/05 01:16:23;;;;;;;16.50;4.37;;;11.70;99.90;;;;;;5061406;28;20199;-82
2023/01/05 01:18:49;;;;;;;24.53;4.63;;;11.80;99.90;;;;;;5043730;28;20280;-82
2023/01/05 01:21:15;;;;;;;18.73;4.03;;;11.80;99.90;;;;;;5061580;28;20186;-82
2023/01/05 01:23:41;;;;;;;19.17;4.07;;;11.80;99.90;;;;;;5043373;28;20190;-82
2023/01/05 01:26:09;;;;;;;14.77;3.40;;;11.80;99.90;;;;;;5061629;28;20215;-82
2023/01/05 01:28:34;;;;;;;21.50;5.53;;;11.80;99.90;;;;;;5044839;28;20175;-82
2023/01/05 01:31:01;;;;;;;21.87;3.30;;;11.70;99.90;;;;;;5043453;28;20198;-82
2023/01/05 01:33:27;;;;;;;20.27;4.80;;;11.70;99.90;;;;;;5062084;28;20176;-82
2023/01/05 01:35:53;;;;;;;12.90;4.00;;;11.70;99.90;;;;;;5043492;28;20215;-82
2023/01/05 01:38:19;;;;;;;25.57;3.40;;;11.70;99.90;;;;;;5044108;28;20180;-83
2023/01/05 01:40:46;;;;;;;24.50;4.20;;;11.70;99.90;;;;;;5060739;28;20198;-82
2023/01/05 01:43:36;;;;;;;17.50;4.00;;;11.70;99.90;;;;;;5043851;28;20175;-82
2023/01/05 01:46:01;;;;;;;15.53;3.27;;;11.70;99.90;;;;;;5062110;28;20262;-82
2023/01/05 01:48:27;;;;;;;20.03;3.53;;;11.60;99.90;;;;;;5062247;28;20184;-82
2023/01/05 01:50:53;;;;;;;17.50;3.47;;;11.70;99.90;;;;;;5062208;28;20183;-82
2023/01/05 01:53:21;;;;;;;17.17;3.80;;;11.70;99.90;;;;;;5062286;28;20218;-81
2023/01/05 01:55:48;;;;;;;16.77;3.37;;;11.60;99.90;;;;;;5067526;28;20219;-82
2023/01/05 01:58:18;;;;;;;18.20;3.40;;;11.70;99.90;;;;;;5071893;28;20178;-83
2023/01/05 02:00:45;;;;;;;23.67;4.40;;;11.60;99.90;;;;;;5070764;28;20148;-82
2023/01/05 02:03:11;;;;;;;20.33;4.27;;;11.70;99.90;;;;;;5041990;28;20644;-81
2023/01/05 02:05:37;;;;;;;16.00;3.73;;;11.60;99.90;;;;;;5041381;28;20206;-82
2023/01/05 02:08:03;;;;;;;19.07;3.80;;;11.60;99.90;;;;;;5042358;28;20183;-82
2023/01/05 02:11:00;;;;;;;18.03;4.20;;;11.60;99.90;;;;;;5060203;28;20208;-82
2023/01/05 02:13:50;;;;;;;14.53;3.73;;;11.50;99.90;;;;;;5060029;28;20557;-82
2023/01/05 02:16:29;;;;;;;16.90;3.37;;;11.60;99.90;;;;;;5042457;28;20257;-82
2023/01/05 02:19:12;;;;;;;17.77;3.63;;;11.50;99.90;;;;;;5042454;28;20163;-82
2023/01/05 02:22:06;;;;;;;24.53;4.23;;;11.50;99.90;;;;;;5059750;28;20154;-82
2023/01/05 02:25:18;;;;;;;18.60;3.93;;;11.50;99.90;;;;;;5059780;28;20184;-82
2023/01/05 02:28:12;;;;;;;20.10;3.53;;;11.50;99.90;;;;;;5060172;28;20170;-82
2023/01/05 02:31:05;;;;;;;17.60;3.77;;;11.40;99.90;;;;;;5054098;28;20614;-83
2023/01/05 02:33:40;;;;;;;23.43;4.40;;;11.50;99.90;;;;;;5041780;28;20167;-82
2023/01/05 02:36:25;;;;;;;19.03;4.37;;;11.50;99.90;;;;;;5059830;28;20226;-82
2023/01/05 02:39:25;;;;;;;19.97;4.80;;;11.50;99.90;;;;;;5042534;28;20163;-81
2023/01/05 02:41:58;;;;;;;17.70;3.57;;;11.50;99.90;;;;;;4999006;28;20197;-81
2023/01/05 02:44:28;;;;;;;22.00;4.07;;;11.40;99.90;;;;;;5050749;28;20191;-82
2023/01/05 02:47:26;;;;;;;15.60;3.70;;;11.50;99.90;;;;;;5042687;28;20176;-82
2023/01/05 02:50:14;;;;;;;21.67;4.70;;;11.50;99.90;;;;;;5060289;28;20687;-82
2023/01/05 02:52:44;;;;;;;15.23;4.40;;;11.50;99.90;;;;;;5060573;28;20203;-82
2023/01/05 02:55:15;;;;;;;20.73;4.67;;;11.50;99.90;;;;;;5060141;28;20195;-83
2023/01/05 02:57:49;;;;;;;17.97;3.83;;;11.50;99.90;;;;;;5042997;28;20594;-81
2023/01/05 03:00:24;;;;;;;16.90;4.03;;;11.40;99.90;;;;;;5061106;28;20158;-83
2023/01/05 03:02:53;;;;;;;20.50;3.80;;;11.40;99.90;;;;;;5044018;28;20174;-82
2023/01/05 03:05:27;;;;;;;19.80;4.17;;;11.40;99.90;;;;;;5061759;28;20280;-82
2023/01/05 03:08:05;;;;;;;21.53;4.03;;;11.40;99.90;;;;;;5044027;28;20194;-81
2023/01/05 03:13:41;;;;;;;24.10;4.53;;;11.30;99.90;;;;;;5075549;28;20159;-82
2023/01/05 03:16:14;;;;;;;24.03;4.00;;;11.30;99.90;;;;;;5051798;28;20242;-83
2023/01/05 03:21:27;;;;;;;30.93;5.03;;;11.30;99.90;;;;;;5060401;28;20166;-82
2023/01/05 03:35:33;;;;;;;23.07;4.70;;;11.40;99.90;;;;;;5064107;28;20242;-82
2023/01/05 03:38:24;;;;;;;15.80;3.87;;;11.40;99.90;;;;;;5046201;28;20234;-82
2023/01/05 03:40:56;;;;;;;15.33;3.90;;;11.40;99.90;;;;;;5064614;28;20160;-82
2023/01/05 03:43:22;;;;;;;23.90;3.87;;;11.40;99.90;;;;;;5067463;28;20243;-82
2023/01/05 03:45:56;;;;;;;20.13;3.93;;;11.40;99.90;;;;;;5081921;28;20180;-83
2023/01/05 03:48:22;;;;;;;17.63;4.50;;;11.30;99.90;;;;;;5064791;28;20160;-83
2023/01/05 03:50:48;;;;;;;21.17;4.53;;;11.20;99.90;;;;;;5067873;28;20187;-82
2023/01/05 03:53:14;;;;;;;19.67;4.20;;;11.20;99.90;;;;;;5062411;28;20176;-82
2023/01/05 03:55:40;;;;;;;21.07;5.13;;;11.20;99.90;;;;;;5061972;28;20695;-82
2023/01/05 03:58:05;;;;;;;25.03;3.93;;;11.10;99.90;;;;;;5044068;28;20267;-82
2023/01/05 04:00:31;;;;;;;15.87;3.47;;;11.10;99.90;;;;;;5062594;28;20225;-82
2023/01/05 04:02:57;;;;;;;20.67;4.00;;;11.10;99.90;;;;;;5062850;28;20548;-81
2023/01/05 04:05:23;;;;;;;22.40;4.33;;;11.10;99.90;;;;;;5062098;28;20241;-82
2023/01/05 04:07:49;;;;;;;24.07;4.47;;;11.10;99.90;;;;;;5061862;28;20680;-82
2023/01/05 04:10:14;;;;;;;24.07;4.77;;;11.00;99.90;;;;;;5043934;28;20610;-82
2023/01/05 04:12:40;;;;;;;26.83;4.83;;;11.00;99.90;;;;;;5043832;28;20176;-82
2023/01/05 04:15:06;;;;;;;22.63;3.97;;;11.10;99.90;;;;;;5043634;28;20215;-82
2023/01/05 04:17:32;;;;;;;19.87;4.60;;;11.10;99.90;;;;;;5043520;28;20648;-82
2023/01/05 04:19:57;;;;;;;19.70;4.17;;;11.30;99.90;;;;;;5061669;28;20172;-82
2023/01/05 04:22:23;;;;;;;25.73;4.27;;;11.00;99.90;;;;;;5061729;28;20180;-83
2023/01/05 04:24:48;;;;;;;22.07;4.40;;;11.50;99.90;;;;;;5061298;28;20288;-83
2023/01/05 04:27:14;;;;;;;22.57;4.73;;;11.00;99.90;;;;;;5061908;28;20235;-82
2023/01/05 04:29:39;;;;;;;18.00;3.63;;;11.00;99.90;;;;;;5062014;28;20168;-83
2023/01/05 04:32:05;;;;;;;23.23;4.73;;;11.00;99.90;;;;;;5061345;28;20207;-83
2023/01/05 04:34:30;;;;;;;19.97;3.60;;;10.90;99.90;;;;;;5061243;28;20203;-82
2023/01/05 04:36:56;;;;;;;19.47;4.40;;;10.90;99.90;;;;;;5061395;28;20168;-82
2023/01/05 04:39:21;;;;;;;18.77;4.20;;;10.80;99.90;;;;;;5041980;28;20183;-83
2023/01/05 04:41:47;;;;;;;18.07;4.60;;;10.80;99.90;;;;;;5062398;28;20230;-83
2023/01/05 04:44:13;;;;;;;23.97;4.10;;;10.70;99.90;;;;;;5061819;28;20644;-82
2023/01/05 04:46:39;;;;;;;14.43;4.07;;;10.70;99.90;;;;;;5061202;28;20182;-83
2023/01/05 04:49:05;;;;;;;23.53;4.03;;;10.70;99.90;;;;;;5043931;28;20708;-83
2023/01/05 04:51:30;;;;;;;20.27;4.73;;;10.70;99.90;;;;;;5062147;28;20656;-82
2023/01/05 04:53:56;;;;;;;22.17;4.13;;;10.60;99.90;;;;;;5043618;28;20175;-82
2023/01/05 04:56:21;;;;;;;26.33;4.50;;;10.60;99.90;;;;;;5043582;28;20203;-82
2023/01/05 04:58:47;;;;;;;18.43;3.40;;;10.60;99.90;;;;;;5042609;28;20183;-82
2023/01/05 05:01:13;;;;;;;23.63;4.23;;;10.50;99.90;;;;;;5060116;28;20174;-83
2023/01/05 05:03:38;;;;;;;22.23;3.90;;;10.50;99.90;;;;;;5042484;28;20171;-82
2023/01/05 05:06:04;;;;;;;19.33;4.30;;;10.50;99.90;;;;;;5042325;28;20230;-82
2023/01/05 05:08:30;;;;;;;16.77;4.53;;;10.60;99.90;;;;;;5060395;28;20175;-83
2023/01/05 05:10:55;;;;;;;18.60;3.67;;;10.60;99.90;;;;;;5042276;28;20199;-82
2023/01/05 05:13:21;;;;;;;14.87;3.57;;;10.60;99.90;;;;;;5061418;28;20675;-82
2023/01/05 05:15:47;;;;;;;12.60;3.30;;;10.70;99.90;;;;;;5042318;28;20211;-84
2023/01/05 05:18:12;;;;;;;23.67;4.37;;;10.60;99.90;;;;;;5060512;28;20177;-82
2023/01/05 05:20:42;;;;;;;18.97;3.67;;;10.60;99.90;;;;;;5060472;28;20163;-82
2023/01/05 05:23:07;;;;;;;19.10;3.73;;;10.70;99.90;;;;;;5041900;28;20593;-82
2023/01/05 05:25:33;;;;;;;22.43;4.10;;;10.70;99.90;;;;;;5060096;28;20207;-82
2023/01/05 05:27:58;;;;;;;18.63;3.90;;;10.70;99.90;;;;;;5060031;28;20226;-82
2023/01/05 05:30:24;;;;;;;25.70;4.03;;;10.70;99.90;;;;;;5060053;28;20180;-82
2023/01/05 05:32:49;;;;;;;18.03;4.70;;;10.70;99.90;;;;;;5041728;28;20180;-82
2023/01/05 05:35:15;;;;;;;18.30;3.80;;;10.70;99.90;;;;;;5041483;28;20257;-82
2023/01/05 05:37:40;;;;;;;17.83;3.30;;;10.70;99.90;;;;;;5041336;28;20186;-82
2023/01/05 05:40:06;;;;;;;19.83;3.70;;;10.70;99.90;;;;;;5060077;28;20547;-82
2023/01/05 05:42:32;;;;;;;21.50;4.27;;;10.70;99.90;;;;;;5060039;28;20176;-82
2023/01/05 05:44:58;;;;;;;20.33;4.40;;;10.70;99.90;;;;;;5059844;28;20195;-82
2023/01/05 05:47:23;;;;;;;22.27;3.80;;;10.60;99.90;;;;;;5060450;28;20194;-82
2023/01/05 05:49:49;;;;;;;20.27;4.27;;;10.60;99.90;;;;;;5040490;28;20546;-82
2023/01/05 05:52:14;;;;;;;21.67;4.10;;;10.60;99.90;;;;;;5059648;28;20183;-83
2023/01/05 05:54:40;;;;;;;22.47;4.30;;;10.60;99.90;;;;;;5042014;28;20207;-82
2023/01/05 05:57:05;;;;;;;23.53;4.67;;;10.60;99.90;;;;;;5041734;28;20182;-82
2023/01/05 05:59:31;;;;;;;19.97;3.47;;;10.60;99.90;;;;;;5041706;28;20175;-83
2023/01/05 06:01:56;;;;;;;20.27;3.73;;;10.60;99.90;;;;;;5042093;28;20266;-82
2023/01/05 06:04:22;;;;;;;18.10;3.23;;;10.60;99.90;;;;;;5042557;28;20670;-82
2023/01/05 06:06:47;;;;;;;23.23;4.67;;;10.60;99.90;;;;;;5041625;28;20163;-84
2023/01/05 06:09:13;;;;;;;21.33;4.10;;;10.60;99.90;;;;;;5042167;28;20176;-83
2023/01/05 06:11:38;;;;;;;20.33;3.50;;;10.50;99.90;;;;;;5061275;28;20644;-82
2023/01/05 06:14:05;;;;;;;23.83;3.87;;;10.50;99.90;;;;;;5036388;28;20221;-82
2023/01/05 06:16:30;;;;;;;22.93;3.50;;;10.50;99.90;;;;;;5059935;28;20214;-83
2023/01/05 06:18:56;;;;;;;25.80;4.60;;;10.30;99.90;;;;;;5061219;28;20221;-82
2023/01/05 06:21:22;;;;;;;20.67;4.77;;;10.40;99.90;;;;;;5060846;28;20203;-82
2023/01/05 06:23:47;;;;;;;19.37;4.00;;;10.40;99.90;;;;;;5044164;28;20245;-82
2023/01/05 06:26:13;;;;;;;23.33;5.10;;;10.30;99.90;;;;;;5061032;28;20211;-82
2023/01/05 06:28:38;;;;;;;22.97;4.33;;;10.40;99.90;;;;;;5043772;28;20264;-82
2023/01/05 06:31:04;;;;;;;21.37;4.93;;;10.30;99.90;;;;;;5061318;28;20187;-81
2023/01/05 06:33:30;;;;;;;17.53;4.00;;;10.30;99.90;;;;;;5043629;28;20266;-82
2023/01/05 06:35:57;;;;;;;21.20;4.10;;;10.30;99.90;;;;;;5043136;28;20207;-82
2023/01/05 06:38:23;;;;;;;17.60;3.70;;;10.30;99.90;;;;;;5044530;28;20233;-82
2023/01/05 06:40:49;;;;;;;22.40;4.73;;;10.30;99.90;;;;;;5061708;28;20175;-82
2023/01/05 06:43:14;;;;;;;19.73;4.97;;;10.30;99.90;;;;;;5118325;22;20221;-77
2023/01/05 06:45:40;;;;;;;26.50;4.77;;;10.30;99.90;;;;;;5097593;28;20170;-78
2023/01/05 06:48:06;;;;;;;21.50;4.57;;;10.20;99.90;;;;;;5116319;28;20184;-78
2023/01/05 06:50:31;;;;;;;22.37;4.70;;;10.20;99.90;;;;;;5116702;28;20526;-78
2023/01/05 06:52:57;;;;;;;19.43;4.23;;;10.20;99.90;;;;;;5115972;28;20246;-78
2023/01/05 06:55:23;;;;;;;16.93;4.17;;;10.30;99.90;;;;;;5116539;28;20255;-78
2023/01/05 06:57:49;;;;;;;23.77;5.60;;;10.20;99.90;;;;;;5097779;28;20590;-78
2023/01/05 07:00:15;;;;;;;17.20;4.70;;;10.20;99.90;;;;;;5115718;28;20177;-75
2023/01/05 07:02:41;;;;;;;29.40;5.67;;;10.30;99.90;;;;;;5101340;28;20216;-78
2023/01/05 07:05:07;;;;;;;27.40;5.17;;;10.20;99.90;;;;;;5119468;28;20642;-78
2023/01/05 07:07:32;;;;;;;23.90;5.00;;;10.20;99.90;;;;;;5120322;28;20639;-78
2023/01/05 07:09:58;;;;;;;20.77;5.07;;;10.20;99.90;;;;;;5120235;28;20177;-78
2023/01/05 07:12:24;;;;;;;21.07;4.93;;;10.20;99.90;;;;;;5101922;28;20205;-77
2023/01/05 07:14:50;;;;;;;25.17;5.73;;;10.20;99.90;;;;;;5119836;28;20701;-78
2023/01/05 07:17:15;;;;;;;22.63;5.53;;;10.20;99.90;;;;;;5102515;28;20532;-77
2023/01/05 07:19:41;;;;;;;23.63;5.13;;;10.20;99.90;;;;;;5119883;28;20170;-78
2023/01/05 07:22:06;;;;;;;27.90;5.10;;;10.20;99.90;;;;;;5119871;28;20185;-78
2023/01/05 07:24:32;;;;;;;15.50;4.27;;;10.20;99.90;;;;;;5119387;28;20173;-78
2023/01/05 07:26:58;;;;;;;30.17;5.40;;;10.20;99.90;;;;;;5101070;28;20170;-77
2023/01/05 07:29:24;;;;;;;25.40;5.30;;;10.20;99.90;;;;;;5119565;28;20210;-78
2023/01/05 07:31:51;;;;;;;21.07;4.87;;;10.20;99.90;;;;;;5119618;28;20223;-77
2023/01/05 07:34:20;;;;;;;21.77;4.73;;;10.20;99.90;;;;;;5119375;28;20675;-77
2023/01/05 07:36:47;;;;;;;31.93;4.97;;;10.30;99.90;;;;;;5104399;28;20170;-77
2023/01/05 07:39:12;;;;;;;25.43;4.53;;;10.30;99.90;;;;;;5105836;28;20174;-77
2023/01/05 07:41:38;;;;;;;22.67;5.27;;;10.40;99.90;;;;;;5122431;28;20199;-78
2023/01/05 07:44:03;;;;;;;17.63;4.73;;;10.40;99.90;;;;;;5118714;28;20189;-77
2023/01/05 07:46:29;;;;;;;30.13;5.43;;;10.40;99.90;;;;;;5100463;28;20226;-78
2023/01/05 07:48:55;;;;;;;28.53;6.23;;;10.40;99.90;;;;;;5118875;28;20527;-78
2023/01/05 07:51:21;;;;;;;21.63;4.67;;;10.30;99.90;;;;;;5100380;28;20552;-78
2023/01/05 07:53:47;;;;;;;33.03;5.60;;;10.40;99.90;;;;;;5100128;28;20200;-78
2023/01/05 07:56:13;;;;;;;25.83;5.73;;;10.40;99.90;;;;;;5100868;28;20197;-78
2023/01/05 07:58:39;;;;;;;31.67;6.40;;;10.30;99.90;;;;;;5119120;28;20643;-78
2023/01/05 08:01:07;;;;;;;26.43;6.43;;;10.30;99.90;;;;;;5100294;28;20170;-77
2023/01/05 08:03:33;;;;;;;19.47;6.40;;;10.40;99.90;;;;;;5118612;28;20272;-76
2023/01/05 08:06:04;;;;;;;28.23;5.47;;;10.40;99.90;;;;;;5118896;28;20227;-78
2023/01/05 08:08:29;;;;;;;31.67;5.90;;;10.40;99.90;;;;;;5118687;28;20150;-78
2023/01/05 08:10:55;;;;;;;22.63;6.03;;;10.40;99.90;;;;;;5118818;28;20318;-78
2023/01/05 08:16:05;;;;;;;25.43;5.67;;;10.40;99.90;;;;;;5117805;28;20238;-76
2023/01/05 08:18:30;;;;;;;21.20;5.33;;;10.40;99.90;;;;;;5118621;28;20560;-78
2023/01/05 08:20:58;;;;;;;22.60;5.07;;;10.40;99.90;;;;;;5117868;28;20170;-78
2023/01/05 08:23:25;;;;;;;23.80;5.17;;;10.40;99.90;;;;;;5118117;28;20190;-79
2023/01/05 08:25:51;;;;;;;23.60;5.33;;;10.40;99.90;;;;;;5119028;28;20176;-79
2023/01/05 08:28:16;;;;;;;26.40;5.00;;;10.40;99.90;;;;;;5118528;28;20170;-78
2023/01/05 08:30:42;;;;;;;22.30;5.37;;;10.50;99.90;;;;;;5099680;28;20173;-79
2023/01/05 08:33:08;;;;;;;26.40;5.67;;;10.40;99.90;;;;;;5099647;28;20200;-79
2023/01/05 08:35:33;;;;;;;24.50;6.50;;;10.40;99.90;;;;;;5118198;28;20705;-78
2023/01/05 08:37:59;;;;;;;24.70;5.70;;;10.40;99.90;;;;;;5117584;28;20165;-79
2023/01/05 08:40:25;;;;;;;28.37;5.80;;;10.50;99.90;;;;;;5117997;28;20177;-79
2023/01/05 08:42:50;;;;;;;28.57;5.10;;;10.50;99.90;;;;;;5117756;28;20209;-78
2023/01/05 08:45:16;;;;;;;20.43;5.30;;;10.50;99.90;;;;;;5098721;28;20185;-77
2023/01/05 08:47:42;;;;;;;23.30;5.27;;;10.50;99.90;;;;;;5117894;28;20174;-78
2023/01/05 08:50:09;;;;;;;28.60;6.20;;;10.50;99.90;;;;;;5118279;28;20174;-78
2023/01/05 08:52:36;;;;;;;22.67;5.83;;;10.60;99.90;;;;;;5117828;28;20196;-79
2023/01/05 08:55:02;;;;;;;30.73;5.03;;;10.60;99.90;;;;;;5117588;28;20201;-78
2023/01/05 08:57:29;;;;;;;24.80;5.53;;;10.40;99.90;;;;;;5117662;28;20161;-79
2023/01/05 08:59:55;;;;;;;20.77;5.57;;;10.50;99.90;;;;;;5117556;28;20194;-79
2023/01/05 09:02:20;;;;;;;27.47;5.50;;;10.50;99.90;;;;;;5118316;28;20190;-79
2023/01/05 09:04:46;;;;;;;27.83;5.60;;;10.50;99.90;;;;;;5117682;28;20707;-79
2023/01/05 09:07:12;;;;;;;25.50;5.67;;;10.50;99.90;;;;;;5100240;28;20291;-79
2023/01/05 09:09:38;;;;;;;25.87;5.20;;;10.50;99.90;;;;;;5099535;28;20213;-79
2023/01/05 09:12:04;;;;;;;25.33;4.97;;;10.50;99.90;;;;;;5117908;28;20193;-78
2023/01/05 09:14:29;;;;;;;19.83;5.30;;;10.50;99.90;;;;;;5099593;28;20543;-79
2023/01/05 09:16:55;;;;;;;21.80;5.33;;;10.60;99.90;;;;;;5118155;28;20185;-78
2023/01/05 09:19:20;;;;;;;20.47;5.20;;;10.60;99.90;;;;;;5099940;28;20522;-78
2023/01/05 09:21:46;;;;;;;19.57;5.77;;;10.60;99.90;;;;;;5132273;28;20178;-78
2023/01/05 09:24:12;;;;;;;21.83;4.70;;;10.60;99.90;;;;;;5121453;28;20162;-77
2023/01/05 09:26:37;;;;;;;24.97;6.07;;;10.60;99.90;;;;;;5132503;28;20191;-79
2023/01/05 09:29:03;;;;;;;29.90;5.67;;;10.60;99.90;;;;;;5116845;28;20184;-79
2023/01/05 09:31:28;;;;;;;26.47;5.67;;;10.60;99.90;;;;;;5117271;28;20214;-79
2023/01/05 09:33:56;;;;;;;20.90;5.23;;;10.60;99.90;;;;;;5116762;28;20194;-79
2023/01/05 09:36:23;;;;;;;30.57;5.77;;;10.60;99.90;;;;;;5116724;28;20280;-78
2023/01/05 09:38:49;;;;;;;24.93;5.57;;;10.70;99.90;;;;;;5117103;28;20165;-79
2023/01/05 09:41:29;;;;;;;21.80;4.57;;;10.70;99.90;;;;;;5098661;28;20169;-79
2023/01/05 09:43:58;;;;;;;26.63;5.33;;;10.70;99.90;;;;;;5098281;28;20216;-79
2023/01/05 09:46:31;;;;;;;27.33;5.87;;;10.70;99.90;;;;;;5117052;28;20248;-79
2023/01/05 09:49:00;;;;;;;26.10;5.00;;;10.70;99.90;;;;;;5117069;28;20166;-79
2023/01/05 09:51:27;;;;;;;21.70;4.70;;;10.70;99.90;;;;;;5115939;28;20170;-79
2023/01/05 09:53:53;;;;;;;26.40;6.00;;;10.80;99.90;;;;;;5096960;28;20232;-78
2023/01/05 09:56:29;;;;;;;25.50;5.50;;;10.80;99.90;;;;;;5115821;28;20197;-77
2023/01/05 09:59:23;;;;;;;21.83;5.37;;;10.80;99.90;;;;;;5097623;28;20154;-79
2023/01/05 10:01:51;;;;;;;24.73;5.80;;;10.80;99.90;;;;;;5108074;28;20182;-78
2023/01/05 10:04:25;;;;;;;27.03;5.77;;;10.90;99.90;;;;;;5116174;28;20197;-79
2023/01/05 10:07:03;;;;;;;25.67;4.83;;;10.90;99.90;;;;;;5097436;28;20204;-78
2023/01/05 10:09:37;;;;;;;26.87;5.20;;;10.90;99.90;;;;;;5116136;28;20177;-79
2023/01/05 10:15:00;;;;;;;19.77;4.60;;;10.90;99.90;;;;;;5115555;28;20631;-79
2023/01/05 10:17:31;;;;;;;23.17;5.43;;;11.00;99.90;;;;;;5097227;28;20253;-79
2023/01/05 10:19:56;;;;;;;24.57;6.07;;;11.00;99.90;;;;;;5097840;28;20618;-79
2023/01/05 10:22:57;;;;;;;26.03;5.77;;;11.00;99.90;;;;;;5097192;28;20205;-79
2023/01/05 10:25:38;;;;;;;28.27;5.40;;;11.00;99.90;;;;;;5111318;28;20610;-77
2023/01/05 10:28:23;;;;;;;24.80;5.83;;;11.00;99.90;;;;;;5096667;28;20603;-78
2023/01/05 10:31:11;;;;;;;25.30;5.80;;;11.00;99.90;;;;;;5115400;28;20154;-78
2023/01/05 10:33:51;;;;;;;27.87;5.53;;;11.00;99.90;;;;;;5115617;28;20193;-78
2023/01/05 10:36:59;;;;;;;28.30;5.00;;;11.00;99.90;;;;;;5096251;28;20193;-78
2023/01/05 10:39:53;;;;;;;24.70;5.17;;;11.00;99.90;;;;;;5115674;28;20259;-78
2023/01/05 10:42:34;;;;;;;23.37;5.80;;;11.00;99.90;;;;;;5115405;28;20208;-78
2023/01/05 10:45:02;;;;;;;20.30;5.17;;;11.10;99.90;;;;;;5116027;28;20146;-78
2023/01/05 10:47:30;;;;;;;32.57;5.90;;;11.00;99.90;;;;;;5116919;28;20166;-79
2023/01/05 10:49:58;;;;;;;17.53;4.30;;;11.00;99.90;;;;;;5096853;28;20173;-78
2023/01/05 10:52:23;;;;;;;24.30;4.87;;;11.10;99.90;;;;;;5096643;28;20197;-77
2023/01/05 10:55:00;;;;;;;21.87;4.63;;;11.10;99.90;;;;;;5115653;28;20208;-79
2023/01/05 10:57:28;;;;;;;20.97;5.33;;;11.10;99.90;;;;;;5096605;28;20210;-78
2023/01/05 11:00:19;;;;;;;20.37;4.63;;;11.10;99.90;;;;;;5113689;28;20244;-78
2023/01/05 11:02:59;;;;;;;20.57;5.40;;;11.20;99.90;;;;;;5115164;28;20241;-77
2023/01/05 11:05:36;;;;;;;24.23;5.53;;;11.20;99.90;;;;;;5118418;28;20161;-76
2023/01/05 11:08:06;;;;;;;19.73;4.97;;;11.20;99.90;;;;;;5100422;28;20245;-77
2023/01/05 11:10:33;;;;;;;21.20;5.83;;;11.20;99.90;;;;;;5095153;28;20180;-75
2023/01/05 11:13:23;;;;;;;26.20;5.17;;;11.20;99.90;;;;;;5113213;28;20195;-77
2023/01/05 11:16:06;;;;;;;22.10;5.03;;;11.20;99.90;;;;;;5113250;28;20211;-77
2023/01/05 11:18:57;;;;;;;25.73;5.20;;;11.20;99.90;;;;;;5113383;28;20162;-77
2023/01/05 11:21:25;;;;;;;21.93;4.57;;;11.30;99.90;;;;;;5095170;28;20181;-77
2023/01/05 11:23:58;;;;;;;22.43;4.53;;;11.30;99.90;;;;;;5113305;28;20204;-77
2023/01/05 11:26:29;;;;;;;20.73;4.93;;;11.30;99.90;;;;;;5113533;28;20504;-77
2023/01/05 11:29:07;;;;;;;17.47;4.30;;;11.20;99.90;;;;;;5094831;28;20249;-77
2023/01/05 11:31:46;;;;;;;26.23;4.90;;;11.30;99.90;;;;;;5113198;28;20218;-77
2023/01/05 11:34:19;;;;;;;19.17;4.23;;;11.30;99.90;;;;;;5095117;28;20161;-77
2023/01/05 11:36:57;;;;;;;27.87;5.20;;;11.30;99.90;;;;;;5094802;28;20186;-77
2023/01/05 11:39:51;;;;;;;21.97;5.37;;;11.20;99.90;;;;;;5113402;28;20627;-77
2023/01/05 11:42:23;;;;;;;20.93;5.90;;;11.30;99.90;;;;;;5102203;28;20587;-77
2023/01/05 11:44:57;;;;;;;18.90;5.50;;;11.30;99.90;;;;;;5095160;28;20264;-77
2023/01/05 11:47:41;;;;;;;20.83;4.20;;;11.30;99.90;;;;;;5115073;28;20579;-77
2023/01/05 11:50:17;;;;;;;27.50;5.90;;;11.30;99.90;;;;;;5117005;28;20608;-77
2023/01/05 11:52:52;;;;;;;30.60;5.13;;;11.30;99.90;;;;;;5116860;28;20192;-77
2023/01/05 11:55:36;;;;;;;27.43;5.87;;;11.30;99.90;;;;;;5098310;28;20235;-77
2023/01/05 11:58:24;;;;;;;14.93;4.10;;;11.30;99.90;;;;;;5116742;28;20241;-77
2023/01/05 12:01:17;;;;;;;18.53;4.17;;;11.40;99.90;;;;;;5116619;28;20142;-77
2023/01/05 12:04:03;;;;;;;21.87;4.43;;;11.30;99.90;;;;;;5116557;28;20186;-77
2023/01/05 12:06:55;;;;;;;14.87;3.97;;;11.30;99.90;;;;;;5116640;28;20161;-77
2023/01/05 12:09:32;;;;;;;24.23;5.07;;;11.30;99.90;;;;;;5116933;28;20512;-77
2023/01/05 12:12:08;;;;;;;25.33;5.80;;;11.30;99.90;;;;;;5098098;28;20169;-77
2023/01/05 12:15:01;;;;;;;26.20;4.67;;;11.30;99.90;;;;;;5098093;28;20243;-78
2023/01/05 12:17:41;;;;;;;27.30;5.07;;;11.40;99.90;;;;;;5116704;28;20154;-77
2023/01/05 12:20:16;;;;;;;19.10;4.33;;;11.30;99.90;;;;;;5116930;28;20179;-77
2023/01/05 12:23:09;;;;;;;20.63;4.70;;;11.30;99.90;;;;;;5116344;28;20227;-77
2023/01/05 12:26:03;;;;;;;24.47;4.93;;;11.30;99.90;;;;;;5098175;28;20165;-77
2023/01/05 12:28:49;;;;;;;26.07;5.47;;;11.20;99.90;;;;;;5115854;28;20560;-76
2023/01/05 12:31:28;;;;;;;29.20;5.40;;;11.30;99.90;;;;;;5115613;28;20687;-76
2023/01/05 12:34:10;;;;;;;21.27;5.37;;;11.30;99.90;;;;;;5097070;28;20197;-76
2023/01/05 12:36:55;;;;;;;21.40;4.87;;;11.20;99.90;;;;;;5115266;28;20213;-77
2023/01/05 12:39:33;;;;;;;24.30;4.70;;;11.20;99.90;;;;;;5115311;28;20173;-76
2023/01/05 12:42:12;;;;;;;22.63;5.17;;;11.20;99.90;;;;;;5096693;28;20198;-76
2023/01/05 12:44:55;;;;;;;31.03;6.00;;;11.30;99.90;;;;;;5115434;28;20164;-76
2023/01/05 12:48:25;;;;;;;23.27;5.23;;;11.40;99.90;;;;;;5097481;28;20158;-76
2023/01/05 12:51:07;;;;;;;25.53;5.43;;;11.40;99.90;;;;;;5019456;28;20538;-77
2023/01/05 12:53:51;;;;;;;26.33;5.27;;;11.50;99.90;;;;;;5115349;28;20182;-76
2023/01/05 12:56:57;;;;;;;18.10;4.77;;;11.50;99.90;;;;;;5114982;28;20188;-76
2023/01/05 12:59:32;;;;;;;16.67;4.80;;;11.50;99.90;;;;;;5113648;28;20685;-77
2023/01/05 13:02:14;;;;;;;20.37;4.87;;;11.70;99.90;;;;;;5114909;28;20146;-76
2023/01/05 13:04:52;;;;;;;20.10;4.73;;;11.60;99.90;;;;;;5096613;28;20158;-77
2023/01/05 13:07:51;;;;;;;23.13;5.07;;;11.50;99.90;;;;;;5114929;28;20220;-76
2023/01/05 13:10:27;;;;;;;18.50;4.70;;;11.60;99.90;;;;;;5114941;28;20180;-76
2023/01/05 13:13:01;;;;;;;17.07;4.77;;;11.60;99.90;;;;;;5114902;28;20258;-77
2023/01/05 13:15:37;;;;;;;22.60;4.33;;;11.50;99.90;;;;;;5114518;28;20189;-77
2023/01/05 13:18:04;;;;;;;25.80;5.30;;;11.50;99.90;;;;;;5114509;28;20188;-76
2023/01/05 13:20:37;;;;;;;20.80;5.30;;;11.50;99.90;;;;;;5114482;28;20198;-77
2023/01/05 13:23:15;;;;;;;20.23;4.67;;;11.50;99.90;;;;;;5096151;28;20201;-77
2023/01/05 13:26:04;;;;;;;16.37;4.97;;;11.40;99.90;;;;;;5114586;28;20166;-77
2023/01/05 13:28:31;;;;;;;26.50;5.07;;;11.40;99.90;;;;;;5115232;28;20627;-78
2023/01/05 13:31:22;;;;;;;22.53;5.60;;;11.40;99.90;;;;;;5096574;28;20186;-77